Weather at Athens Eleftherios Venizelos International Airport

Public forecast

Using degrees Celsius for public forecast. Weather courtesy of forecast.io.

Current aviation weather report (METAR) for Athens Eleftherios Venizelos International Airport

2024/04/16 16:50 (retrieved 15 minutes ago)

LGAV 161650Z 21007KT CAVOK 20/09 Q1008 NOSIG

Aviation forecast (TAF) for Athens Eleftherios Venizelos International Airport

2024/04/16 12:12 (retrieved 5 hours ago)

TAF TAF LGAV 161100Z 1612/1712 20015KT 9999 FEW025 SCT070 BECMG 1623/1701 VRB03KT PROB30 TEMPO 1621/1700 5000 RA FEW025 BKN070